Time;durP1;ratioP1;P1;durP2;ratioP2;P2;SDS_P1;SDS_P2;PMS_P1;PMS_P2;Temp;Humidity;BMP_temperature;BMP_pressure;BME280_temperature;BME280_humidity;BME280_pressure;Samples;Min_cycle;Max_cycle;Signal;HPM_P1;HPM_P2
2024/04/22 00:00:24;;;;;;;;;;;;;;;6.47;100.00;102792.09;5378278;26;19973;-76
2024/04/22 00:02:50;;;;;;;;;;;;;;;6.53;100.00;102788.94;5346777;26;20321;-76
2024/04/22 00:05:15;;;;;;;;;;;;;;;6.42;100.00;102787.16;5350673;26;19925;-76
2024/04/22 00:07:40;;;;;;;;;;;;;;;6.46;100.00;102793.09;5346341;26;19945;-76
2024/04/22 00:10:06;;;;;;;;;;;;;;;6.41;100.00;102793.44;5384290;26;19932;-76
2024/04/22 00:12:31;;;;;;;;;;;;;;;6.29;100.00;102802.44;5336300;26;20242;-76
2024/04/22 00:14:56;;;;;;;;;;;;;;;6.44;100.00;102809.19;5348447;26;20173;-76
2024/04/22 00:17:22;;;;;;;;;;;;;;;6.48;100.00;102816.00;5351288;26;19955;-76
2024/04/22 00:19:47;;;;;;;;;;;;;;;6.37;100.00;102826.66;5381155;26;19937;-76
2024/04/22 00:22:12;;;;;;;;;;;;;;;6.33;100.00;102835.84;5380148;26;19939;-76
2024/04/22 00:24:38;;;;;;;;;;;;;;;6.39;100.00;102843.38;5379274;26;19929;-76
2024/04/22 00:27:03;;;;;;;;;;;;;;;6.51;100.00;102847.75;5379826;26;19936;-76
2024/04/22 00:29:29;;;;;;;;;;;;;;;6.27;100.00;102837.19;5378809;26;19975;-76
2024/04/22 00:31:54;;;;;;;;;;;;;;;6.33;100.00;102852.72;5348274;26;20022;-76
2024/04/22 00:34:19;;;;;;;;;;;;;;;6.45;100.00;102840.25;5354495;26;20441;-76
2024/04/22 00:36:44;;;;;;;;;;;;;;;6.44;100.00;102843.00;5379147;26;19934;-76
2024/04/22 00:39:10;;;;;;;;;;;;;;;6.37;100.00;102840.00;5377819;26;19940;-76
2024/04/22 00:41:35;;;;;;;;;;;;;;;6.24;100.00;102839.25;5348896;26;19929;-76
2024/04/22 00:44:01;;;;;;;;;;;;;;;6.20;100.00;102838.66;5352886;26;19932;-76
2024/04/22 00:46:26;;;;;;;;;;;;;;;6.43;100.00;102838.66;5353987;26;19932;-76
2024/04/22 00:48:52;;;;;;;;;;;;;;;6.34;100.00;102842.91;5382946;26;20259;-76
2024/04/22 00:51:17;;;;;;;;;;;;;;;6.27;100.00;102839.84;5350330;26;19926;-76
2024/04/22 00:53:43;;;;;;;;;;;;;;;6.49;100.00;102838.16;5381069;26;20555;-76
2024/04/22 00:56:08;;;;;;;;;;;;;;;6.36;100.00;102835.63;5351646;26;19995;-76
2024/04/22 00:58:33;;;;;;;;;;;;;;;6.22;100.00;102834.06;5383253;26;20343;-76
2024/04/22 01:00:59;;;;;;;;;;;;;;;6.15;100.00;102826.66;5350774;26;19998;-76
2024/04/22 01:03:24;;;;;;;;;;;;;;;6.21;100.00;102826.19;5384693;26;20351;-76
2024/04/22 01:05:50;;;;;;;;;;;;;;;6.21;100.00;102820.84;5381471;26;19929;-76
2024/04/22 01:08:15;;;;;;;;;;;;;;;6.49;100.00;102823.00;5347548;26;19925;-76
2024/04/22 01:10:40;;;;;;;;;;;;;;;6.61;100.00;102820.31;5353308;26;19926;-76
2024/04/22 01:13:06;;;;;;;;;;;;;;;6.69;100.00;102815.22;5384508;26;19925;-76
2024/04/22 01:15:31;;;;;;;;;;;;;;;6.32;100.00;102821.69;5352149;26;19998;-76
2024/04/22 01:17:56;;;;;;;;;;;;;;;6.33;100.00;102823.41;5381010;26;20388;-76
2024/04/22 01:20:22;;;;;;;;;;;;;;;6.31;100.00;102824.50;5349305;26;20199;-76
2024/04/22 01:22:47;;;;;;;;;;;;;;;6.43;100.00;102828.84;5349166;26;20460;-76
2024/04/22 01:25:15;;;;;;;;;;;;;;;6.40;100.00;102826.41;5381347;26;19972;-76
2024/04/22 01:27:41;;;;;;;;;;;;;;;6.37;100.00;102828.50;5384101;26;19934;-76
2024/04/22 01:30:07;;;;;;;;;;;;;;;6.02;100.00;102832.13;5354364;26;20460;-76
2024/04/22 01:32:32;;;;;;;;;;;;;;;5.92;100.00;102853.25;5379597;26;20044;-76
2024/04/22 01:34:58;;;;;;;;;;;;;;;5.75;100.00;102859.88;5347847;26;19925;-76
2024/04/22 01:37:24;;;;;;;;;;;;;;;5.70;100.00;102880.69;5346813;26;19990;-76
2024/04/22 01:39:49;;;;;;;;;;;;;;;6.19;100.00;102882.28;5350255;26;19965;-76
2024/04/22 01:42:14;;;;;;;;;;;;;;;5.73;100.00;102868.94;5355745;26;20343;-76
2024/04/22 01:44:40;;;;;;;;;;;;;;;5.55;100.00;102866.72;5355546;26;19940;-77
2024/04/22 01:47:05;;;;;;;;;;;;;;;5.76;100.00;102872.25;5353567;26;19941;-76
2024/04/22 01:49:30;;;;;;;;;;;;;;;6.01;100.00;102855.22;5380829;26;19925;-76
2024/04/22 01:51:56;;;;;;;;;;;;;;;5.77;100.00;102836.66;5348826;26;19941;-76
2024/04/22 01:54:21;;;;;;;;;;;;;;;5.70;100.00;102832.78;5376184;26;19933;-76
2024/04/22 01:56:47;;;;;;;;;;;;;;;5.56;100.00;102820.50;5382679;26;19931;-76
2024/04/22 01:59:12;;;;;;;;;;;;;;;5.25;100.00;102823.81;5379478;26;19950;-76
2024/04/22 02:01:39;;;;;;;;;;;;;;;5.89;100.00;102817.03;5375659;26;19953;-76
2024/04/22 02:04:04;;;;;;;;;;;;;;;5.84;100.00;102818.38;5380565;26;19962;-76
2024/04/22 02:06:29;;;;;;;;;;;;;;;5.91;100.00;102805.44;5376537;26;19994;-76
2024/04/22 02:08:55;;;;;;;;;;;;;;;5.97;100.00;102802.31;5357548;26;19933;-76
2024/04/22 02:11:20;;;;;;;;;;;;;;;5.47;100.00;102796.41;5377537;26;19935;-76
2024/04/22 02:13:45;;;;;;;;;;;;;;;5.78;100.00;102800.22;5374908;26;19932;-76
2024/04/22 02:18:45;;;;;;;;;;;;;;;5.62;100.00;102795.25;5409637;26;20332;-73
2024/04/22 02:21:10;;;;;;;;;;;;;;;5.69;100.00;102787.63;5406579;26;19933;-73
2024/04/22 02:23:36;;;;;;;;;;;;;;;5.42;100.00;102791.44;5360071;26;19996;-73
2024/04/22 02:26:02;;;;;;;;;;;;;;;5.48;100.00;102787.47;5354926;26;19925;-73
2024/04/22 02:28:28;;;;;;;;;;;;;;;5.60;100.00;102786.50;5353949;26;19934;-73
2024/04/22 02:30:53;;;;;;;;;;;;;;;5.60;100.00;102775.88;5358722;26;19926;-74
2024/04/22 02:33:18;;;;;;;;;;;;;;;5.53;100.00;102777.31;5354416;26;19925;-74
2024/04/22 02:35:44;;;;;;;;;;;;;;;5.37;100.00;102774.97;5380470;26;19926;-73
2024/04/22 02:38:09;;;;;;;;;;;;;;;5.36;100.00;102778.59;5346516;26;20321;-72
2024/04/22 02:40:34;;;;;;;;;;;;;;;5.51;100.00;102763.28;5354383;26;20476;-72
2024/04/22 02:43:00;;;;;;;;;;;;;;;5.44;100.00;102770.88;5357912;26;19926;-74
2024/04/22 02:45:26;;;;;;;;;;;;;;;5.20;100.00;102765.59;5360953;26;19925;-73
2024/04/22 02:47:51;;;;;;;;;;;;;;;5.14;100.00;102774.91;5356991;26;20004;-74
2024/04/22 02:50:16;;;;;;;;;;;;;;;5.25;100.00;102778.56;5362485;26;20378;-73
2024/04/22 02:52:42;;;;;;;;;;;;;;;4.90;100.00;102776.75;5359749;26;19969;-74
2024/04/22 02:55:07;;;;;;;;;;;;;;;5.36;100.00;102784.78;5356979;26;20006;-73
2024/04/22 02:57:32;;;;;;;;;;;;;;;5.27;100.00;102779.31;5355811;26;19925;-73
2024/04/22 02:59:58;;;;;;;;;;;;;;;5.35;100.00;102775.09;5360872;26;19932;-72
2024/04/22 03:02:23;;;;;;;;;;;;;;;5.28;100.00;102779.19;5357305;26;19933;-72
2024/04/22 03:04:49;;;;;;;;;;;;;;;5.10;100.00;102769.94;5353189;26;19948;-74
2024/04/22 03:07:14;;;;;;;;;;;;;;;5.27;100.00;102772.19;5359994;26;19944;-72
2024/04/22 03:09:42;;;;;;;;;;;;;;;4.96;100.00;102768.31;5351940;26;19980;-72
2024/04/22 03:12:08;;;;;;;;;;;;;;;4.56;100.00;102765.09;5354127;26;20003;-74
2024/04/22 03:14:34;;;;;;;;;;;;;;;5.14;100.00;102779.38;5360808;26;19940;-73
2024/04/22 03:16:59;;;;;;;;;;;;;;;5.42;100.00;102771.00;5353390;26;19933;-72
2024/04/22 03:19:24;;;;;;;;;;;;;;;5.41;100.00;102763.16;5357691;26;19935;-74
2024/04/22 03:21:50;;;;;;;;;;;;;;;5.46;100.00;102750.31;5355420;26;19999;-73
2024/04/22 03:24:15;;;;;;;;;;;;;;;5.29;100.00;102745.44;5361545;26;19926;-74
2024/04/22 03:26:40;;;;;;;;;;;;;;;5.27;100.00;102744.72;5350502;26;19945;-74
2024/04/22 03:29:06;;;;;;;;;;;;;;;5.16;100.00;102749.03;5363919;26;20363;-72
2024/04/22 03:31:31;;;;;;;;;;;;;;;5.32;100.00;102738.09;5356456;26;20370;-73
2024/04/22 03:33:58;;;;;;;;;;;;;;;5.33;100.00;102739.78;5360250;26;20591;-74
2024/04/22 03:36:23;;;;;;;;;;;;;;;5.35;100.00;102734.31;5360184;26;20321;-72
2024/04/22 03:38:48;;;;;;;;;;;;;;;5.36;100.00;102731.56;5359675;26;20152;-73
2024/04/22 03:41:14;;;;;;;;;;;;;;;5.33;100.00;102741.59;5355650;26;19945;-73
2024/04/22 03:43:39;;;;;;;;;;;;;;;4.85;100.00;102733.69;5354614;26;19926;-72
2024/04/22 03:51:32;;;;;;;;;;;;;;;5.27;100.00;102728.75;5355190;26;19965;-74
2024/04/22 03:53:57;;;;;;;;;;;;;;;5.37;100.00;102719.09;5356088;26;19926;-73
2024/04/22 03:56:22;;;;;;;;;;;;;;;5.13;100.00;102719.16;5355573;26;20441;-73
2024/04/22 03:58:48;;;;;;;;;;;;;;;5.26;100.00;102711.91;5356422;26;19925;-74
2024/04/22 04:01:13;;;;;;;;;;;;;;;5.26;100.00;102709.25;5360076;26;19941;-73
2024/04/22 04:03:38;;;;;;;;;;;;;;;5.30;100.00;102701.91;5356480;26;19934;-73
2024/04/22 04:06:04;;;;;;;;;;;;;;;4.94;100.00;102709.91;5381220;26;20680;-73
2024/04/22 04:08:29;;;;;;;;;;;;;;;4.58;100.00;102723.31;5358476;26;20390;-74
2024/04/22 04:10:59;;;;;;;;;;;;;;;4.78;100.00;102724.50;5348691;26;19937;-74
2024/04/22 04:13:25;;;;;;;;;;;;;;;5.01;100.00;102723.59;5348307;26;19932;-73
2024/04/22 04:15:50;;;;;;;;;;;;;;;5.09;100.00;102720.34;5350251;26;19925;-74
2024/04/22 04:18:15;;;;;;;;;;;;;;;4.95;100.00;102719.59;5359876;26;19962;-73
2024/04/22 04:20:41;;;;;;;;;;;;;;;5.15;100.00;102715.44;5358921;26;20268;-74
2024/04/22 04:23:06;;;;;;;;;;;;;;;5.10;100.00;102714.09;5356498;26;19933;-73
2024/04/22 04:25:31;;;;;;;;;;;;;;;5.19;100.00;102706.22;5355415;26;19933;-74
2024/04/22 04:27:57;;;;;;;;;;;;;;;5.08;100.00;102705.38;5358648;26;20536;-73
2024/04/22 04:30:22;;;;;;;;;;;;;;;5.24;100.00;102707.72;5355295;26;20638;-73
2024/04/22 04:32:47;;;;;;;;;;;;;;;5.08;100.00;102697.38;5359591;26;20271;-73
2024/04/22 04:35:12;;;;;;;;;;;;;;;5.21;100.00;102706.13;5359805;26;20006;-73
2024/04/22 04:37:38;;;;;;;;;;;;;;;5.37;100.00;102698.63;5361672;26;20563;-73
2024/04/22 04:40:03;;;;;;;;;;;;;;;5.53;100.00;102694.81;5362229;26;19926;-73
2024/04/22 04:42:28;;;;;;;;;;;;;;;5.44;100.00;102694.56;5358318;26;19945;-72
2024/04/22 04:44:54;;;;;;;;;;;;;;;5.36;100.00;102696.13;5358837;26;20391;-74
2024/04/22 04:47:19;;;;;;;;;;;;;;;5.59;100.00;102681.84;5364871;26;20000;-73
2024/04/22 04:49:45;;;;;;;;;;;;;;;4.82;100.00;102585.03;5384878;26;20237;-74
2024/04/22 04:52:10;;;;;;;;;;;;;;;5.54;100.00;102689.34;5365999;26;20338;-74
2024/04/22 04:54:36;;;;;;;;;;;;;;;5.38;100.00;102688.84;5361853;26;19937;-73
2024/04/22 04:57:01;;;;;;;;;;;;;;;5.61;100.00;102679.91;5364935;26;20358;-72
2024/04/22 04:59:26;;;;;;;;;;;;;;;5.48;100.00;102678.34;5361306;26;20374;-74
2024/04/22 05:01:52;;;;;;;;;;;;;;;5.54;100.00;102676.03;5363550;26;19957;-73
2024/04/22 05:04:17;;;;;;;;;;;;;;;5.44;100.00;102681.25;5365194;26;19925;-73
2024/04/22 05:06:42;;;;;;;;;;;;;;;5.47;100.00;102674.84;5362233;26;19932;-73
2024/04/22 05:09:07;;;;;;;;;;;;;;;5.54;100.00;102670.72;5360985;26;19933;-73
2024/04/22 05:11:33;;;;;;;;;;;;;;;5.74;100.00;102660.31;5361195;26;20402;-74
2024/04/22 05:13:59;;;;;;;;;;;;;;;5.74;100.00;102662.97;5386765;26;19933;-74
2024/04/22 05:16:24;;;;;;;;;;;;;;;5.62;100.00;102660.31;5366482;26;19943;-73
2024/04/22 05:18:49;;;;;;;;;;;;;;;5.62;100.00;102664.78;5365519;26;19937;-74
2024/04/22 05:21:15;;;;;;;;;;;;;;;5.77;100.00;102660.06;5360973;26;20016;-73
2024/04/22 05:23:47;;;;;;;;;;;;;;;5.72;100.00;102667.56;5359008;26;20343;-73
2024/04/22 05:26:12;;;;;;;;;;;;;;;5.59;100.00;102665.88;5357612;26;19932;-71
2024/04/22 05:28:37;;;;;;;;;;;;;;;5.82;100.00;102655.22;5357947;26;19933;-70
2024/04/22 05:31:03;;;;;;;;;;;;;;;5.72;100.00;102664.91;5356942;26;20440;-70
2024/04/22 05:36:14;;;;;;;;;;;;;;;5.70;100.00;102662.38;5361335;26;20386;-71
2024/04/22 05:38:39;;;;;;;;;;;;;;;5.77;100.00;102658.25;5352524;26;20475;-70
2024/04/22 05:41:05;;;;;;;;;;;;;;;5.77;100.00;102658.25;5365434;26;19926;-71
2024/04/22 05:43:30;;;;;;;;;;;;;;;5.83;100.00;102654.25;5364651;26;20403;-70
2024/04/22 05:45:56;;;;;;;;;;;;;;;5.78;100.00;102659.06;5357332;26;20322;-71
2024/04/22 05:48:21;;;;;;;;;;;;;;;5.93;100.00;102649.91;5366488;26;19933;-71
2024/04/22 05:50:46;;;;;;;;;;;;;;;5.87;100.00;102656.53;5360615;26;19925;-71
2024/04/22 05:53:12;;;;;;;;;;;;;;;5.99;100.00;102653.88;5357252;26;19933;-71
2024/04/22 05:55:37;;;;;;;;;;;;;;;5.98;100.00;102657.50;5358336;26;19932;-70
2024/04/22 05:58:02;;;;;;;;;;;;;;;6.06;100.00;102655.06;5359243;26;19937;-70
2024/04/22 06:00:27;;;;;;;;;;;;;;;6.14;100.00;102649.97;5360980;26;19994;-71
2024/04/22 06:02:53;;;;;;;;;;;;;;;6.03;100.00;102653.50;5360254;26;20373;-71
2024/04/22 06:05:18;;;;;;;;;;;;;;;6.17;100.00;102647.06;5385846;26;19940;-71
2024/04/22 06:07:43;;;;;;;;;;;;;;;6.11;100.00;102652.88;5360290;26;20446;-70
2024/04/22 06:10:09;;;;;;;;;;;;;;;6.08;100.00;102659.31;5360838;26;19933;-70
2024/04/22 06:12:34;;;;;;;;;;;;;;;6.34;100.00;102654.50;5364558;26;19942;-70
2024/04/22 06:15:00;;;;;;;;;;;;;;;6.30;100.00;102652.22;5356708;26;19933;-70
2024/04/22 06:17:25;;;;;;;;;;;;;;;6.34;100.00;102649.19;5363058;26;19937;-70
2024/04/22 06:19:50;;;;;;;;;;;;;;;6.31;100.00;102649.44;5361039;26;19926;-70
2024/04/22 06:22:16;;;;;;;;;;;;;;;6.29;100.00;102648.72;5357188;26;20442;-71
2024/04/22 06:24:41;;;;;;;;;;;;;;;6.37;100.00;102644.56;5358327;26;20820;-72
2024/04/22 06:27:07;;;;;;;;;;;;;;;6.57;100.00;102651.75;5358161;26;19933;-70
2024/04/22 06:29:32;;;;;;;;;;;;;;;6.60;100.00;102640.84;5358895;26;20002;-72
2024/04/22 06:31:58;;;;;;;;;;;;;;;6.63;100.00;102643.25;5360889;26;20440;-70
2024/04/22 06:34:23;;;;;;;;;;;;;;;6.66;100.00;102655.47;5359838;26;19926;-71
2024/04/22 06:36:48;;;;;;;;;;;;;;;6.75;100.00;102652.88;5358928;26;19937;-72
2024/04/22 06:39:13;;;;;;;;;;;;;;;6.77;100.00;102656.25;5361983;26;20545;-70
2024/04/22 06:41:39;;;;;;;;;;;;;;;6.75;100.00;102644.88;5358527;26;19933;-70
2024/04/22 06:44:04;;;;;;;;;;;;;;;6.73;100.00;102643.31;5356686;26;19925;-70
2024/04/22 06:46:30;;;;;;;;;;;;;;;6.81;100.00;102638.19;5358983;26;19965;-71
2024/04/22 06:48:55;;;;;;;;;;;;;;;6.81;100.00;102648.84;5362492;26;19940;-71
2024/04/22 06:51:20;;;;;;;;;;;;;;;6.88;100.00;102642.00;5363137;26;20271;-70
2024/04/22 06:53:46;;;;;;;;;;;;;;;6.94;100.00;102643.31;5356877;26;19925;-70
2024/04/22 06:56:11;;;;;;;;;;;;;;;6.92;100.00;102646.13;5356585;26;19954;-70
2024/04/22 06:58:36;;;;;;;;;;;;;;;6.98;100.00;102642.09;5359925;26;19937;-70
2024/04/22 07:01:02;;;;;;;;;;;;;;;7.18;100.00;102638.53;5361434;26;20264;-70
2024/04/22 07:03:27;;;;;;;;;;;;;;;7.07;100.00;102656.47;5357316;26;19932;-71
2024/04/22 07:05:53;;;;;;;;;;;;;;;7.02;100.00;102644.34;5361946;26;20382;-71
2024/04/22 07:08:19;;;;;;;;;;;;;;;6.99;100.00;102641.09;5359481;26;19941;-70
2024/04/22 07:10:45;;;;;;;;;;;;;;;7.11;100.00;102652.53;5361268;26;19926;-71
2024/04/22 07:13:10;;;;;;;;;;;;;;;7.06;100.00;102647.63;5361798;26;19934;-72
2024/04/22 07:15:35;;;;;;;;;;;;;;;7.19;100.00;102647.38;5362368;26;19963;-70
2024/04/22 07:18:00;;;;;;;;;;;;;;;7.14;100.00;102645.09;5354616;26;20403;-71
2024/04/22 07:20:26;;;;;;;;;;;;;;;7.14;100.00;102642.44;5358393;26;20657;-70
2024/04/22 07:22:51;;;;;;;;;;;;;;;7.10;100.00;102648.19;5358589;26;19934;-71
2024/04/22 07:25:17;;;;;;;;;;;;;;;7.20;100.00;102649.94;5357912;26;19932;-71
2024/04/22 07:27:43;;;;;;;;;;;;;;;7.24;100.00;102646.00;5362243;26;19926;-71
2024/04/22 07:30:10;;;;;;;;;;;;;;;7.21;100.00;102640.94;5357628;26;19932;-71
2024/04/22 07:32:35;;;;;;;;;;;;;;;7.24;100.00;102643.34;5361451;26;20314;-70
2024/04/22 07:35:01;;;;;;;;;;;;;;;7.17;100.00;102642.16;5361073;26;19925;-70
2024/04/22 07:37:33;;;;;;;;;;;;;;;7.03;100.00;102645.22;5356733;26;19938;-70
2024/04/22 07:40:12;;;;;;;;;;;;;;;7.06;100.00;102649.41;5358491;26;20023;-72
2024/04/22 07:42:37;;;;;;;;;;;;;;;7.18;100.00;102651.03;5363646;26;19937;-70
2024/04/22 07:45:02;;;;;;;;;;;;;;;7.41;100.00;102647.22;5353417;26;19994;-71
2024/04/22 07:47:27;;;;;;;;;;;;;;;7.53;100.00;102656.00;5355860;26;19925;-71
2024/04/22 07:49:53;;;;;;;;;;;;;;;7.69;100.00;102651.00;5358504;26;19995;-70
2024/04/22 07:52:18;;;;;;;;;;;;;;;7.69;100.00;102644.78;5361224;26;19932;-70
2024/04/22 07:54:43;;;;;;;;;;;;;;;7.73;100.00;102643.56;5356623;26;20442;-71
2024/04/22 07:57:09;;;;;;;;;;;;;;;7.73;100.00;102645.38;5358422;26;19940;-70
2024/04/22 07:59:35;;;;;;;;;;;;;;;7.75;100.00;102640.72;5355045;26;20526;-72
2024/04/22 08:02:00;;;;;;;;;;;;;;;7.78;100.00;102646.66;5358574;26;20090;-71
2024/04/22 08:04:26;;;;;;;;;;;;;;;7.82;100.00;102657.91;5354904;26;19932;-70
2024/04/22 08:06:52;;;;;;;;;;;;;;;7.81;100.00;102657.06;5356687;26;19926;-70
2024/04/22 08:09:17;;;;;;;;;;;;;;;7.86;100.00;102657.50;5354036;26;19937;-71
2024/04/22 08:11:42;;;;;;;;;;;;;;;7.82;100.00;102656.09;5364444;26;19926;-70
2024/04/22 08:14:08;;;;;;;;;;;;;;;8.04;100.00;102662.19;5356912;26;19956;-72
2024/04/22 08:16:33;;;;;;;;;;;;;;;8.22;100.00;102659.69;5379311;21;19964;-74
2024/04/22 08:18:58;;;;;;;;;;;;;;;8.30;100.00;102662.50;5402978;26;19933;-74
2024/04/22 08:21:23;;;;;;;;;;;;;;;8.28;100.00;102661.81;5396786;26;19932;-74
2024/04/22 08:23:49;;;;;;;;;;;;;;;8.14;100.00;102671.91;5415921;26;19925;-74
2024/04/22 08:26:14;;;;;;;;;;;;;;;8.12;100.00;102665.00;5413713;26;19933;-74
2024/04/22 08:28:39;;;;;;;;;;;;;;;8.19;100.00;102665.28;5413737;26;19967;-74
2024/04/22 08:31:06;;;;;;;;;;;;;;;8.27;100.00;102666.28;5416254;26;19932;-74
2024/04/22 08:33:32;;;;;;;;;;;;;;;8.42;100.00;102660.56;5399361;26;19925;-74
2024/04/22 08:35:57;;;;;;;;;;;;;;;8.37;100.00;102653.78;5388832;26;20246;-74
2024/04/22 08:38:22;;;;;;;;;;;;;;;8.53;100.00;102657.75;5391297;26;19932;-74
2024/04/22 08:40:48;;;;;;;;;;;;;;;8.63;100.00;102655.94;5394576;26;19932;-74
2024/04/22 08:43:13;;;;;;;;;;;;;;;8.59;100.00;102658.06;5421601;26;19932;-74
2024/04/22 08:45:45;;;;;;;;;;;;;;;8.62;100.00;102648.03;5419636;26;19944;-74
2024/04/22 08:48:10;;;;;;;;;;;;;;;8.14;100.00;102660.38;5419504;26;20361;-74
2024/04/22 08:50:40;;;;;;;;;;;;;;;8.04;100.00;102670.19;5387658;26;19925;-74
2024/04/22 08:53:07;;;;;;;;;;;;;;;7.89;100.00;102675.06;5416919;26;19925;-74
2024/04/22 08:55:32;;;;;;;;;;;;;;;7.96;100.00;102670.06;5417898;26;19936;-74
2024/04/22 08:57:57;;;;;;;;;;;;;;;7.64;100.00;102671.06;5418405;26;20362;-74
2024/04/22 09:00:23;;;;;;;;;;;;;;;7.53;100.00;102665.81;5390969;26;19999;-74
2024/04/22 09:02:48;;;;;;;;;;;;;;;7.73;100.00;102656.91;5417456;26;20295;-74
2024/04/22 09:05:13;;;;;;;;;;;;;;;7.66;100.00;102656.56;5420468;26;20381;-74
2024/04/22 09:07:39;;;;;;;;;;;;;;;7.53;100.00;102657.81;5385108;26;19936;-74
2024/04/22 09:10:04;;;;;;;;;;;;;;;7.81;100.00;102650.88;5419599;26;19932;-74
2024/04/22 09:12:30;;;;;;;;;;;;;;;8.11;100.00;102649.97;5390820;26;20708;-74
2024/04/22 09:15:01;;;;;;;;;;;;;;;8.23;100.00;102634.66;5422841;26;19932;-74
2024/04/22 09:17:27;;;;;;;;;;;;;;;8.28;100.00;102641.25;5420808;26;19924;-74
2024/04/22 09:19:52;;;;;;;;;;;;;;;8.33;100.00;102636.34;5420908;26;19932;-74
2024/04/22 09:22:17;;;;;;;;;;;;;;;8.31;100.00;102634.78;5415838;26;19940;-75
2024/04/22 09:24:43;;;;;;;;;;;;;;;8.24;100.00;102637.16;5417535;26;19990;-75
2024/04/22 09:27:09;;;;;;;;;;;;;;;8.20;100.00;102632.25;5422783;26;19949;-74
2024/04/22 09:29:40;;;;;;;;;;;;;;;8.12;100.00;102632.94;5417803;26;19931;-74
2024/04/22 09:32:09;;;;;;;;;;;;;;;7.93;100.00;102639.94;5419820;26;19957;-74
2024/04/22 09:34:39;;;;;;;;;;;;;;;8.00;100.00;102629.53;5416220;26;20370;-74
2024/04/22 09:37:04;;;;;;;;;;;;;;;7.99;100.00;102638.56;5417675;26;19940;-74
2024/04/22 09:39:30;;;;;;;;;;;;;;;7.94;100.00;102635.44;5424433;26;19925;-74
2024/04/22 09:41:56;;;;;;;;;;;;;;;8.03;100.00;102637.28;5424120;26;19968;-74
2024/04/22 09:44:22;;;;;;;;;;;;;;;8.25;100.00;102625.50;5388057;26;19925;-74
2024/04/22 09:46:50;;;;;;;;;;;;;;;8.37;100.00;102627.06;5390685;26;19972;-74
2024/04/22 09:49:17;;;;;;;;;;;;;;;8.56;100.00;102623.56;5417998;26;19932;-74
2024/04/22 09:51:44;;;;;;;;;;;;;;;8.62;100.00;102614.13;5390011;26;19953;-74
2024/04/22 09:54:09;;;;;;;;;;;;;;;8.79;100.00;102604.50;5420084;26;20216;-74
2024/04/22 09:56:36;;;;;;;;;;;;;;;8.97;100.00;102610.81;5421563;26;19932;-74
2024/04/22 09:59:02;;;;;;;;;;;;;;;8.80;100.00;102600.88;5418534;26;20298;-74
2024/04/22 10:01:28;;;;;;;;;;;;;;;8.90;100.00;102598.16;5415580;26;19932;-74
2024/04/22 10:03:53;;;;;;;;;;;;;;;8.94;100.00;102600.41;5419413;26;19937;-74
2024/04/22 10:06:21;;;;;;;;;;;;;;;8.94;100.00;102600.41;5391526;26;20269;-74
2024/04/22 10:08:46;;;;;;;;;;;;;;;9.02;100.00;102597.00;5413125;26;19924;-74
2024/04/22 10:11:12;;;;;;;;;;;;;;;9.22;100.00;102605.81;5417744;26;20439;-74
2024/04/22 10:13:37;;;;;;;;;;;;;;;9.14;100.00;102603.88;5420576;26;20008;-74
2024/04/22 10:16:03;;;;;;;;;;;;;;;9.11;100.00;102598.78;5420974;26;19953;-73
2024/04/22 10:18:28;;;;;;;;;;;;;;;8.90;100.00;102593.66;5387574;26;19924;-74
2024/04/22 10:20:59;;;;;;;;;;;;;;;9.08;100.00;102593.72;5422792;26;19936;-74
2024/04/22 10:23:25;;;;;;;;;;;;;;;9.34;100.00;102595.75;5419494;26;19937;-74
2024/04/22 10:25:50;;;;;;;;;;;;;;;9.39;100.00;102596.16;5387977;26;19961;-74
2024/04/22 10:28:15;;;;;;;;;;;;;;;9.35;100.00;102592.94;5413964;26;20350;-74
2024/04/22 10:30:41;;;;;;;;;;;;;;;9.22;100.00;102603.97;5418557;26;19994;-74
2024/04/22 10:33:06;;;;;;;;;;;;;;;8.68;100.00;102604.66;5416157;26;19932;-74
2024/04/22 10:35:32;;;;;;;;;;;;;;;8.53;100.00;102601.59;5390582;26;20621;-74
2024/04/22 10:37:57;;;;;;;;;;;;;;;8.46;100.00;102609.34;5420796;26;20016;-74
2024/04/22 10:40:23;;;;;;;;;;;;;;;8.92;100.00;102602.38;5385672;26;19925;-74
2024/04/22 10:42:48;;;;;;;;;;;;;;;9.23;100.00;102592.28;5417480;26;19925;-74
2024/04/22 10:45:14;;;;;;;;;;;;;;;9.22;100.00;102589.75;5417467;26;19937;-74
2024/04/22 10:47:40;;;;;;;;;;;;;;;9.23;100.00;102586.94;5417828;26;19925;-74
2024/04/22 10:50:18;;;;;;;;;;;;;;;9.08;100.00;102596.41;5413381;26;19941;-74
2024/04/22 10:52:43;;;;;;;;;;;;;;;9.36;100.00;102583.06;5414508;26;19936;-74
2024/04/22 10:55:08;;;;;;;;;;;;;;;9.44;100.00;102585.84;5415190;26;19924;-74
2024/04/22 10:57:34;;;;;;;;;;;;;;;9.67;100.00;102581.78;5386901;26;19957;-74
2024/04/22 11:00:01;;;;;;;;;;;;;;;9.30;100.00;102599.72;5417018;26;19932;-74
2024/04/22 11:02:26;;;;;;;;;;;;;;;9.17;100.00;102602.72;5385017;26;19936;-74
2024/04/22 11:04:52;;;;;;;;;;;;;;;9.12;100.00;102600.50;5417719;26;20413;-74
2024/04/22 11:07:19;;;;;;;;;;;;;;;9.49;100.00;102584.41;5385575;26;20009;-74
2024/04/22 11:09:45;;;;;;;;;;;;;;;9.43;100.00;102581.47;5413625;26;19965;-74
2024/04/22 11:12:10;;;;;;;;;;;;;;;9.11;100.00;102581.88;5415625;26;20377;-74
2024/04/22 11:14:36;;;;;;;;;;;;;;;9.36;100.00;102577.72;5385731;26;19970;-75
2024/04/22 11:17:01;;;;;;;;;;;;;;;9.33;100.00;102573.50;5387790;26;19924;-74
2024/04/22 11:19:26;;;;;;;;;;;;;;;9.37;100.00;102574.88;5418904;26;20042;-74
2024/04/22 11:21:52;;;;;;;;;;;;;;;9.44;100.00;102575.13;5417376;26;19993;-74
2024/04/22 11:24:17;;;;;;;;;;;;;;;9.47;100.00;102574.84;5418178;26;19945;-74
2024/04/22 11:26:43;;;;;;;;;;;;;;;9.32;100.00;102571.81;5417509;26;19932;-74
2024/04/22 11:29:09;;;;;;;;;;;;;;;9.42;100.00;102577.94;5413876;26;19955;-74
2024/04/22 11:31:36;;;;;;;;;;;;;;;9.61;100.00;102565.47;5417029;26;19924;-74
2024/04/22 11:34:02;;;;;;;;;;;;;;;9.58;100.00;102565.75;5386254;26;19931;-74
2024/04/22 11:36:33;;;;;;;;;;;;;;;9.48;100.00;102557.75;5418184;26;20032;-74
2024/04/22 11:38:58;;;;;;;;;;;;;;;9.45;100.00;102560.75;5418749;26;19968;-74
2024/04/22 11:41:23;;;;;;;;;;;;;;;9.51;100.00;102565.50;5417005;26;19990;-74
2024/04/22 11:43:49;;;;;;;;;;;;;;;9.53;100.00;102558.16;5383341;26;19924;-74
2024/04/22 11:46:14;;;;;;;;;;;;;;;9.64;100.00;102565.16;5390439;26;19944;-74
2024/04/22 11:48:39;;;;;;;;;;;;;;;9.55;100.00;102556.19;5391993;26;20568;-75
2024/04/22 11:51:05;;;;;;;;;;;;;;;9.55;100.00;102566.91;5417457;26;19932;-74
2024/04/22 11:53:30;;;;;;;;;;;;;;;9.54;100.00;102557.16;5419423;26;19924;-74
2024/04/22 11:55:55;;;;;;;;;;;;;;;9.77;100.00;102551.38;5390416;26;19925;-75
2024/04/22 11:58:24;;;;;;;;;;;;;;;9.58;100.00;102553.19;5420090;26;19931;-74
2024/04/22 12:00:49;;;;;;;;;;;;;;;9.76;100.00;102553.22;5389173;26;19937;-75
2024/04/22 12:03:14;;;;;;;;;;;;;;;9.68;100.00;102548.59;5418010;26;19933;-74
2024/04/22 12:05:39;;;;;;;;;;;;;;;9.94;100.00;102545.19;5423543;26;19933;-74
2024/04/22 12:08:05;;;;;;;;;;;;;;;9.85;100.00;102546.09;5372004;26;19933;-75
2024/04/22 12:10:30;;;;;;;;;;;;;;;9.73;100.00;102532.09;5370616;26;19952;-74
2024/04/22 12:12:56;;;;;;;;;;;;;;;9.90;100.00;102528.56;5395405;26;19957;-74
2024/04/22 12:15:21;;;;;;;;;;;;;;;10.00;100.00;102527.66;5414825;26;19925;-74
2024/04/22 12:17:46;;;;;;;;;;;;;;;10.10;100.00;102523.06;5423697;26;19937;-74
2024/04/22 12:20:12;;;;;;;;;;;;;;;10.25;100.00;102515.31;5420244;26;19937;-74
2024/04/22 12:22:38;;;;;;;;;;;;;;;10.34;100.00;102519.75;5416702;26;19933;-75
2024/04/22 12:25:03;;;;;;;;;;;;;;;10.12;100.00;102513.84;5415231;26;19929;-74
2024/04/22 12:27:29;;;;;;;;;;;;;;;10.36;100.00;102507.88;5388270;26;19931;-74
2024/04/22 12:29:54;;;;;;;;;;;;;;;10.09;100.00;102514.16;5419931;26;19936;-74
2024/04/22 12:32:19;;;;;;;;;;;;;;;10.39;100.00;102514.78;5420436;26;20008;-75
2024/04/22 12:34:45;;;;;;;;;;;;;;;10.56;100.00;102511.22;5419593;26;19932;-74
2024/04/22 12:37:10;;;;;;;;;;;;;;;10.49;100.00;102507.47;5419052;26;19951;-74